sensor_id;sensor_type;location;lat;lon;timestamp;P1;durP1;ratioP1;P2;durP2;ratioP2
17650;SDS011;26663;59.302;18.082;2023-12-04T00:00:01;2.70;;;2.57;;
17650;SDS011;26663;59.302;18.082;2023-12-04T00:03:13;2.27;;;2.27;;
17650;SDS011;26663;59.302;18.082;2023-12-04T00:06:17;3.10;;;2.90;;
17650;SDS011;26663;59.302;18.082;2023-12-04T00:09:22;2.30;;;2.20;;
17650;SDS011;26663;59.302;18.082;2023-12-04T00:12:27;2.60;;;2.50;;
17650;SDS011;26663;59.302;18.082;2023-12-04T00:15:31;2.40;;;2.30;;
17650;SDS011;26663;59.302;18.082;2023-12-04T00:18:35;2.50;;;2.50;;
17650;SDS011;26663;59.302;18.082;2023-12-04T00:21:39;2.10;;;2.10;;
17650;SDS011;26663;59.302;18.082;2023-12-04T00:24:45;2.30;;;2.30;;
17650;SDS011;26663;59.302;18.082;2023-12-04T00:27:49;2.30;;;2.20;;
17650;SDS011;26663;59.302;18.082;2023-12-04T00:30:53;2.40;;;2.30;;
17650;SDS011;26663;59.302;18.082;2023-12-04T07:07:58;2.23;;;2.23;;
17650;SDS011;26663;59.302;18.082;2023-12-04T07:11:02;2.00;;;1.90;;
17650;SDS011;26663;59.302;18.082;2023-12-04T07:14:06;2.13;;;2.13;;
17650;SDS011;26663;59.302;18.082;2023-12-04T07:17:10;2.20;;;2.20;;
17650;SDS011;26663;59.302;18.082;2023-12-04T07:20:14;2.60;;;2.50;;
17650;SDS011;26663;59.302;18.082;2023-12-04T07:23:20;2.40;;;2.37;;
17650;SDS011;26663;59.302;18.082;2023-12-04T07:26:28;2.83;;;2.73;;
17650;SDS011;26663;59.302;18.082;2023-12-04T07:29:32;2.40;;;2.37;;
17650;SDS011;26663;59.302;18.082;2023-12-04T07:32:35;2.50;;;2.40;;
17650;SDS011;26663;59.302;18.082;2023-12-04T07:35:39;2.80;;;2.70;;
17650;SDS011;26663;59.302;18.082;2023-12-04T07:38:45;2.90;;;2.80;;
17650;SDS011;26663;59.302;18.082;2023-12-04T07:41:48;2.70;;;2.50;;
17650;SDS011;26663;59.302;18.082;2023-12-04T07:44:52;2.60;;;2.50;;
17650;SDS011;26663;59.302;18.082;2023-12-04T07:47:56;2.90;;;2.60;;
17650;SDS011;26663;59.302;18.082;2023-12-04T07:51:00;2.90;;;2.73;;
17650;SDS011;26663;59.302;18.082;2023-12-04T07:54:05;2.40;;;2.30;;
17650;SDS011;26663;59.302;18.082;2023-12-04T07:57:09;2.63;;;2.47;;
17650;SDS011;26663;59.302;18.082;2023-12-04T08:00:14;2.63;;;2.53;;
17650;SDS011;26663;59.302;18.082;2023-12-04T08:03:20;1.90;;;1.90;;
17650;SDS011;26663;59.302;18.082;2023-12-04T08:06:24;2.47;;;2.37;;
17650;SDS011;26663;59.302;18.082;2023-12-04T08:09:29;2.70;;;2.60;;
17650;SDS011;26663;59.302;18.082;2023-12-04T08:12:33;2.80;;;2.60;;
17650;SDS011;26663;59.302;18.082;2023-12-04T08:15:37;2.53;;;2.43;;
17650;SDS011;26663;59.302;18.082;2023-12-04T08:18:41;2.50;;;2.30;;
17650;SDS011;26663;59.302;18.082;2023-12-04T08:21:46;2.30;;;2.30;;
17650;SDS011;26663;59.302;18.082;2023-12-04T08:24:51;2.60;;;2.50;;
17650;SDS011;26663;59.302;18.082;2023-12-04T08:27:55;4.67;;;2.40;;
17650;SDS011;26663;59.302;18.082;2023-12-04T08:30:59;2.60;;;2.50;;
17650;SDS011;26663;59.302;18.082;2023-12-04T08:34:03;2.30;;;2.20;;
17650;SDS011;26663;59.302;18.082;2023-12-04T08:37:07;2.17;;;2.07;;
17650;SDS011;26663;59.302;18.082;2023-12-04T08:40:13;2.30;;;2.20;;
17650;SDS011;26663;59.302;18.082;2023-12-04T08:43:17;2.37;;;2.27;;
17650;SDS011;26663;59.302;18.082;2023-12-04T08:46:21;2.40;;;2.30;;
17650;SDS011;26663;59.302;18.082;2023-12-04T08:49:25;2.20;;;2.13;;
17650;SDS011;26663;59.302;18.082;2023-12-04T08:52:43;2.27;;;2.17;;
17650;SDS011;26663;59.302;18.082;2023-12-04T08:55:48;2.37;;;2.37;;
17650;SDS011;26663;59.302;18.082;2023-12-04T08:58:53;2.70;;;2.50;;
17650;SDS011;26663;59.302;18.082;2023-12-04T09:01:57;2.33;;;2.23;;
17650;SDS011;26663;59.302;18.082;2023-12-04T09:05:01;3.33;;;3.23;;
17650;SDS011;26663;59.302;18.082;2023-12-04T09:08:06;2.57;;;2.40;;
17650;SDS011;26663;59.302;18.082;2023-12-04T09:11:14;2.50;;;2.40;;
17650;SDS011;26663;59.302;18.082;2023-12-04T09:14:25;2.63;;;2.53;;
17650;SDS011;26663;59.302;18.082;2023-12-04T09:17:30;2.20;;;2.10;;
17650;SDS011;26663;59.302;18.082;2023-12-04T09:20:41;2.50;;;2.30;;
17650;SDS011;26663;59.302;18.082;2023-12-04T09:23:45;2.30;;;2.30;;
17650;SDS011;26663;59.302;18.082;2023-12-04T09:26:53;2.20;;;2.10;;
17650;SDS011;26663;59.302;18.082;2023-12-04T09:29:57;2.30;;;2.20;;
17650;SDS011;26663;59.302;18.082;2023-12-04T09:33:01;2.23;;;2.13;;
17650;SDS011;26663;59.302;18.082;2023-12-04T09:36:05;2.47;;;2.30;;
17650;SDS011;26663;59.302;18.082;2023-12-04T09:39:10;2.37;;;2.20;;
17650;SDS011;26663;59.302;18.082;2023-12-04T09:42:15;2.00;;;2.00;;
17650;SDS011;26663;59.302;18.082;2023-12-04T09:45:21;2.10;;;2.10;;
17650;SDS011;26663;59.302;18.082;2023-12-04T09:48:27;2.00;;;2.00;;
17650;SDS011;26663;59.302;18.082;2023-12-04T09:51:32;1.97;;;1.97;;
17650;SDS011;26663;59.302;18.082;2023-12-04T09:54:36;2.10;;;2.10;;
17650;SDS011;26663;59.302;18.082;2023-12-04T09:57:42;2.40;;;2.30;;
17650;SDS011;26663;59.302;18.082;2023-12-04T10:00:47;2.43;;;2.40;;
17650;SDS011;26663;59.302;18.082;2023-12-04T10:03:51;2.33;;;2.23;;
17650;SDS011;26663;59.302;18.082;2023-12-04T10:06:55;2.43;;;2.33;;
17650;SDS011;26663;59.302;18.082;2023-12-04T10:09:59;2.40;;;2.30;;
17650;SDS011;26663;59.302;18.082;2023-12-04T10:13:04;2.30;;;2.20;;
17650;SDS011;26663;59.302;18.082;2023-12-04T10:16:08;2.27;;;2.17;;
17650;SDS011;26663;59.302;18.082;2023-12-04T10:19:16;2.33;;;2.33;;
17650;SDS011;26663;59.302;18.082;2023-12-04T10:22:21;2.20;;;2.10;;
17650;SDS011;26663;59.302;18.082;2023-12-04T10:25:26;2.67;;;2.60;;
17650;SDS011;26663;59.302;18.082;2023-12-04T10:28:33;4.33;;;2.50;;
17650;SDS011;26663;59.302;18.082;2023-12-04T10:31:37;2.10;;;2.10;;
17650;SDS011;26663;59.302;18.082;2023-12-04T10:34:41;2.10;;;2.00;;
17650;SDS011;26663;59.302;18.082;2023-12-04T10:37:45;2.50;;;2.40;;
17650;SDS011;26663;59.302;18.082;2023-12-04T10:40:49;2.20;;;2.20;;
17650;SDS011;26663;59.302;18.082;2023-12-04T10:43:55;6.40;;;2.23;;
17650;SDS011;26663;59.302;18.082;2023-12-04T10:47:11;2.10;;;2.10;;
17650;SDS011;26663;59.302;18.082;2023-12-04T10:50:14;2.33;;;2.23;;
17650;SDS011;26663;59.302;18.082;2023-12-04T10:53:18;2.33;;;2.17;;
17650;SDS011;26663;59.302;18.082;2023-12-04T10:56:25;1.90;;;1.90;;
17650;SDS011;26663;59.302;18.082;2023-12-04T10:59:35;2.23;;;2.13;;
17650;SDS011;26663;59.302;18.082;2023-12-04T11:02:41;1.87;;;1.87;;
17650;SDS011;26663;59.302;18.082;2023-12-04T11:05:51;2.17;;;2.17;;
17650;SDS011;26663;59.302;18.082;2023-12-04T11:08:59;1.93;;;1.93;;
17650;SDS011;26663;59.302;18.082;2023-12-04T11:12:04;2.13;;;2.13;;
17650;SDS011;26663;59.302;18.082;2023-12-04T11:15:14;2.30;;;2.30;;
17650;SDS011;26663;59.302;18.082;2023-12-04T11:18:21;2.03;;;1.97;;
17650;SDS011;26663;59.302;18.082;2023-12-04T11:21:27;2.03;;;2.00;;
17650;SDS011;26663;59.302;18.082;2023-12-04T11:24:32;1.93;;;1.93;;
17650;SDS011;26663;59.302;18.082;2023-12-04T11:27:36;2.00;;;2.00;;
17650;SDS011;26663;59.302;18.082;2023-12-04T11:30:41;1.90;;;1.90;;
17650;SDS011;26663;59.302;18.082;2023-12-04T11:33:45;3.20;;;2.23;;
17650;SDS011;26663;59.302;18.082;2023-12-04T11:36:50;2.30;;;2.30;;
17650;SDS011;26663;59.302;18.082;2023-12-04T11:39:54;1.63;;;1.60;;
17650;SDS011;26663;59.302;18.082;2023-12-04T11:42:59;2.30;;;2.30;;
17650;SDS011;26663;59.302;18.082;2023-12-04T11:46:10;2.37;;;2.13;;
17650;SDS011;26663;59.302;18.082;2023-12-04T11:49:26;2.20;;;2.20;;
17650;SDS011;26663;59.302;18.082;2023-12-04T11:52:32;1.97;;;1.90;;
17650;SDS011;26663;59.302;18.082;2023-12-04T11:55:37;2.00;;;2.00;;
17650;SDS011;26663;59.302;18.082;2023-12-04T11:58:43;2.30;;;2.10;;
17650;SDS011;26663;59.302;18.082;2023-12-04T12:01:53;2.83;;;2.40;;
17650;SDS011;26663;59.302;18.082;2023-12-04T12:04:57;2.03;;;2.03;;
17650;SDS011;26663;59.302;18.082;2023-12-04T12:08:02;2.10;;;2.10;;
17650;SDS011;26663;59.302;18.082;2023-12-04T12:11:06;2.13;;;2.13;;
17650;SDS011;26663;59.302;18.082;2023-12-04T12:14:10;2.27;;;2.00;;
17650;SDS011;26663;59.302;18.082;2023-12-04T12:17:16;1.93;;;1.90;;
17650;SDS011;26663;59.302;18.082;2023-12-04T12:20:20;2.10;;;2.10;;
17650;SDS011;26663;59.302;18.082;2023-12-04T12:23:24;2.03;;;1.93;;
17650;SDS011;26663;59.302;18.082;2023-12-04T12:26:30;1.80;;;1.80;;
17650;SDS011;26663;59.302;18.082;2023-12-04T12:29:34;2.37;;;2.13;;
17650;SDS011;26663;59.302;18.082;2023-12-04T12:32:39;2.20;;;2.20;;
17650;SDS011;26663;59.302;18.082;2023-12-04T12:35:43;2.07;;;1.97;;
17650;SDS011;26663;59.302;18.082;2023-12-04T12:39:01;2.40;;;2.20;;
17650;SDS011;26663;59.302;18.082;2023-12-04T12:42:06;2.20;;;2.20;;
17650;SDS011;26663;59.302;18.082;2023-12-04T12:45:10;1.90;;;1.90;;
17650;SDS011;26663;59.302;18.082;2023-12-04T12:48:16;2.37;;;2.27;;
17650;SDS011;26663;59.302;18.082;2023-12-04T12:51:20;2.43;;;2.23;;
17650;SDS011;26663;59.302;18.082;2023-12-04T12:54:24;3.27;;;2.27;;
17650;SDS011;26663;59.302;18.082;2023-12-04T12:57:28;2.00;;;1.90;;
17650;SDS011;26663;59.302;18.082;2023-12-04T13:00:34;2.30;;;2.17;;
17650;SDS011;26663;59.302;18.082;2023-12-04T13:03:39;2.50;;;2.40;;
17650;SDS011;26663;59.302;18.082;2023-12-04T13:06:43;2.10;;;2.00;;
17650;SDS011;26663;59.302;18.082;2023-12-04T13:09:47;2.30;;;2.20;;
17650;SDS011;26663;59.302;18.082;2023-12-04T13:12:52;2.13;;;2.03;;
17650;SDS011;26663;59.302;18.082;2023-12-04T13:15:58;2.03;;;2.03;;
17650;SDS011;26663;59.302;18.082;2023-12-04T13:19:03;6.83;;;2.30;;
17650;SDS011;26663;59.302;18.082;2023-12-04T13:22:08;2.00;;;1.90;;
17650;SDS011;26663;59.302;18.082;2023-12-04T13:25:12;2.20;;;2.10;;
17650;SDS011;26663;59.302;18.082;2023-12-04T13:28:16;2.13;;;2.13;;
17650;SDS011;26663;59.302;18.082;2023-12-04T13:31:33;2.23;;;2.17;;
17650;SDS011;26663;59.302;18.082;2023-12-04T13:34:38;2.07;;;1.97;;
17650;SDS011;26663;59.302;18.082;2023-12-04T13:37:42;2.43;;;2.23;;
17650;SDS011;26663;59.302;18.082;2023-12-04T13:40:46;3.70;;;2.03;;
17650;SDS011;26663;59.302;18.082;2023-12-04T13:44:01;4.77;;;2.00;;
17650;SDS011;26663;59.302;18.082;2023-12-04T13:47:05;4.03;;;2.03;;
17650;SDS011;26663;59.302;18.082;2023-12-04T13:50:10;2.17;;;2.13;;
17650;SDS011;26663;59.302;18.082;2023-12-04T13:53:14;3.27;;;2.20;;
17650;SDS011;26663;59.302;18.082;2023-12-04T13:56:18;2.50;;;2.40;;
17650;SDS011;26663;59.302;18.082;2023-12-04T13:59:43;13.53;;;4.60;;
17650;SDS011;26663;59.302;18.082;2023-12-04T14:02:47;2.60;;;2.50;;
17650;SDS011;26663;59.302;18.082;2023-12-04T14:05:57;2.07;;;2.07;;
17650;SDS011;26663;59.302;18.082;2023-12-04T14:09:01;3.10;;;2.50;;
17650;SDS011;26663;59.302;18.082;2023-12-04T14:12:08;2.17;;;2.17;;
17650;SDS011;26663;59.302;18.082;2023-12-04T14:15:13;2.80;;;2.63;;
17650;SDS011;26663;59.302;18.082;2023-12-04T14:18:17;4.77;;;2.33;;
17650;SDS011;26663;59.302;18.082;2023-12-04T14:21:22;2.17;;;2.17;;
17650;SDS011;26663;59.302;18.082;2023-12-04T14:24:26;2.20;;;2.10;;
17650;SDS011;26663;59.302;18.082;2023-12-04T14:27:32;2.30;;;2.20;;
17650;SDS011;26663;59.302;18.082;2023-12-04T14:30:37;2.50;;;2.27;;
17650;SDS011;26663;59.302;18.082;2023-12-04T14:33:42;5.00;;;2.67;;
17650;SDS011;26663;59.302;18.082;2023-12-04T14:36:47;2.93;;;2.63;;
17650;SDS011;26663;59.302;18.082;2023-12-04T14:39:52;2.77;;;2.67;;
17650;SDS011;26663;59.302;18.082;2023-12-04T14:42:56;2.67;;;2.47;;
17650;SDS011;26663;59.302;18.082;2023-12-04T14:46:00;1.97;;;1.87;;
17650;SDS011;26663;59.302;18.082;2023-12-04T14:49:04;2.30;;;2.20;;
17650;SDS011;26663;59.302;18.082;2023-12-04T14:52:10;2.20;;;2.10;;
17650;SDS011;26663;59.302;18.082;2023-12-04T14:55:14;2.43;;;2.33;;
17650;SDS011;26663;59.302;18.082;2023-12-04T14:58:32;2.63;;;2.53;;
17650;SDS011;26663;59.302;18.082;2023-12-04T15:01:54;2.13;;;2.13;;
17650;SDS011;26663;59.302;18.082;2023-12-04T15:05:14;2.70;;;2.60;;
17650;SDS011;26663;59.302;18.082;2023-12-04T15:08:48;2.77;;;2.67;;
17650;SDS011;26663;59.302;18.082;2023-12-04T15:12:07;2.77;;;2.47;;
17650;SDS011;26663;59.302;18.082;2023-12-04T15:15:23;2.40;;;2.30;;
17650;SDS011;26663;59.302;18.082;2023-12-04T15:18:42;2.33;;;2.23;;
17650;SDS011;26663;59.302;18.082;2023-12-04T15:22:03;2.43;;;2.33;;
17650;SDS011;26663;59.302;18.082;2023-12-04T15:25:09;2.40;;;2.30;;
17650;SDS011;26663;59.302;18.082;2023-12-04T15:28:14;2.13;;;2.13;;
17650;SDS011;26663;59.302;18.082;2023-12-04T15:31:17;2.33;;;2.23;;
17650;SDS011;26663;59.302;18.082;2023-12-04T15:34:22;2.10;;;2.10;;
17650;SDS011;26663;59.302;18.082;2023-12-04T15:37:25;2.00;;;1.90;;
17650;SDS011;26663;59.302;18.082;2023-12-04T15:40:31;2.33;;;2.10;;
17650;SDS011;26663;59.302;18.082;2023-12-04T15:43:35;1.87;;;1.87;;
17650;SDS011;26663;59.302;18.082;2023-12-04T15:46:39;1.80;;;1.80;;
17650;SDS011;26663;59.302;18.082;2023-12-04T15:49:43;1.73;;;1.73;;
17650;SDS011;26663;59.302;18.082;2023-12-04T15:52:47;1.93;;;1.87;;
17650;SDS011;26663;59.302;18.082;2023-12-04T15:55:52;1.77;;;1.77;;
17650;SDS011;26663;59.302;18.082;2023-12-04T15:58:56;1.90;;;1.90;;
17650;SDS011;26663;59.302;18.082;2023-12-04T16:02:00;1.73;;;1.73;;
17650;SDS011;26663;59.302;18.082;2023-12-04T16:05:04;1.60;;;1.60;;
17650;SDS011;26663;59.302;18.082;2023-12-04T16:08:09;1.70;;;1.70;;
17650;SDS011;26663;59.302;18.082;2023-12-04T16:11:17;1.93;;;1.93;;
17650;SDS011;26663;59.302;18.082;2023-12-04T16:14:21;1.90;;;1.90;;
17650;SDS011;26663;59.302;18.082;2023-12-04T16:17:25;1.50;;;1.50;;
17650;SDS011;26663;59.302;18.082;2023-12-04T16:20:29;2.00;;;2.00;;
17650;SDS011;26663;59.302;18.082;2023-12-04T16:23:33;1.80;;;1.80;;
17650;SDS011;26663;59.302;18.082;2023-12-04T16:26:38;2.07;;;2.00;;
17650;SDS011;26663;59.302;18.082;2023-12-04T16:29:43;1.87;;;1.87;;
17650;SDS011;26663;59.302;18.082;2023-12-04T16:32:47;2.10;;;2.10;;
17650;SDS011;26663;59.302;18.082;2023-12-04T16:35:51;2.00;;;2.00;;
17650;SDS011;26663;59.302;18.082;2023-12-04T16:38:55;2.27;;;2.17;;
17650;SDS011;26663;59.302;18.082;2023-12-04T16:42:00;2.47;;;2.37;;
17650;SDS011;26663;59.302;18.082;2023-12-04T16:45:04;2.33;;;2.20;;
17650;SDS011;26663;59.302;18.082;2023-12-04T16:48:09;2.20;;;2.20;;
17650;SDS011;26663;59.302;18.082;2023-12-04T16:51:13;2.40;;;2.30;;
17650;SDS011;26663;59.302;18.082;2023-12-04T16:54:17;2.20;;;2.10;;
17650;SDS011;26663;59.302;18.082;2023-12-04T16:57:23;1.80;;;1.80;;
17650;SDS011;26663;59.302;18.082;2023-12-04T17:00:27;2.20;;;2.00;;
17650;SDS011;26663;59.302;18.082;2023-12-04T17:03:31;2.07;;;2.07;;
17650;SDS011;26663;59.302;18.082;2023-12-04T17:06:35;1.77;;;1.70;;
17650;SDS011;26663;59.302;18.082;2023-12-04T17:09:39;2.00;;;1.83;;
17650;SDS011;26663;59.302;18.082;2023-12-04T17:12:45;1.97;;;1.93;;
17650;SDS011;26663;59.302;18.082;2023-12-04T17:15:49;1.77;;;1.77;;
17650;SDS011;26663;59.302;18.082;2023-12-04T17:18:53;1.97;;;1.90;;
17650;SDS011;26663;59.302;18.082;2023-12-04T17:21:57;2.30;;;2.20;;
17650;SDS011;26663;59.302;18.082;2023-12-04T17:25:01;1.93;;;1.93;;
17650;SDS011;26663;59.302;18.082;2023-12-04T17:28:07;2.00;;;2.00;;
17650;SDS011;26663;59.302;18.082;2023-12-04T17:31:11;1.90;;;1.90;;
17650;SDS011;26663;59.302;18.082;2023-12-04T17:34:15;2.17;;;2.17;;
17650;SDS011;26663;59.302;18.082;2023-12-04T17:37:19;2.20;;;2.20;;
17650;SDS011;26663;59.302;18.082;2023-12-04T17:40:23;2.07;;;2.07;;
17650;SDS011;26663;59.302;18.082;2023-12-04T17:43:28;2.57;;;2.47;;
17650;SDS011;26663;59.302;18.082;2023-12-04T17:46:34;2.80;;;2.60;;
17650;SDS011;26663;59.302;18.082;2023-12-04T17:49:38;2.00;;;2.00;;
17650;SDS011;26663;59.302;18.082;2023-12-04T17:52:42;2.30;;;2.30;;
17650;SDS011;26663;59.302;18.082;2023-12-04T17:55:46;2.80;;;2.67;;
17650;SDS011;26663;59.302;18.082;2023-12-04T17:58:51;3.30;;;2.30;;
17650;SDS011;26663;59.302;18.082;2023-12-04T18:01:55;2.10;;;2.10;;
17650;SDS011;26663;59.302;18.082;2023-12-04T18:04:59;2.50;;;2.40;;
17650;SDS011;26663;59.302;18.082;2023-12-04T18:08:03;2.93;;;2.73;;
17650;SDS011;26663;59.302;18.082;2023-12-04T18:11:07;2.97;;;2.83;;
17650;SDS011;26663;59.302;18.082;2023-12-04T18:14:13;3.03;;;2.83;;
17650;SDS011;26663;59.302;18.082;2023-12-04T18:17:16;3.30;;;3.10;;
17650;SDS011;26663;59.302;18.082;2023-12-04T18:20:22;3.10;;;2.97;;
17650;SDS011;26663;59.302;18.082;2023-12-04T18:23:26;3.43;;;3.10;;
17650;SDS011;26663;59.302;18.082;2023-12-04T18:26:30;3.60;;;3.30;;
17650;SDS011;26663;59.302;18.082;2023-12-04T18:29:36;3.60;;;3.40;;
17650;SDS011;26663;59.302;18.082;2023-12-04T18:32:41;3.03;;;2.73;;
17650;SDS011;26663;59.302;18.082;2023-12-04T18:35:45;2.73;;;2.63;;
17650;SDS011;26663;59.302;18.082;2023-12-04T18:38:50;3.70;;;2.70;;
17650;SDS011;26663;59.302;18.082;2023-12-04T18:41:55;2.87;;;2.77;;
17650;SDS011;26663;59.302;18.082;2023-12-04T18:45:01;2.67;;;2.57;;
17650;SDS011;26663;59.302;18.082;2023-12-04T18:48:05;3.47;;;2.70;;
17650;SDS011;26663;59.302;18.082;2023-12-04T18:51:12;2.30;;;2.20;;
17650;SDS011;26663;59.302;18.082;2023-12-04T18:54:17;2.80;;;2.60;;
17650;SDS011;26663;59.302;18.082;2023-12-04T18:57:21;2.77;;;2.57;;
17650;SDS011;26663;59.302;18.082;2023-12-04T19:00:26;2.67;;;2.57;;
17650;SDS011;26663;59.302;18.082;2023-12-04T19:03:30;2.93;;;2.83;;
17650;SDS011;26663;59.302;18.082;2023-12-04T19:06:34;2.60;;;2.50;;
17650;SDS011;26663;59.302;18.082;2023-12-04T19:09:38;2.90;;;2.70;;
17650;SDS011;26663;59.302;18.082;2023-12-04T19:12:42;3.07;;;2.97;;
17650;SDS011;26663;59.302;18.082;2023-12-04T19:15:48;2.60;;;2.40;;
17650;SDS011;26663;59.302;18.082;2023-12-04T19:18:52;2.83;;;2.73;;
17650;SDS011;26663;59.302;18.082;2023-12-04T19:21:56;2.73;;;2.63;;
17650;SDS011;26663;59.302;18.082;2023-12-04T19:25:01;2.80;;;2.70;;
17650;SDS011;26663;59.302;18.082;2023-12-04T19:28:05;3.30;;;3.10;;
17650;SDS011;26663;59.302;18.082;2023-12-04T19:31:10;2.93;;;2.83;;
17650;SDS011;26663;59.302;18.082;2023-12-04T19:34:14;2.90;;;2.70;;
17650;SDS011;26663;59.302;18.082;2023-12-04T19:37:19;2.77;;;2.67;;
17650;SDS011;26663;59.302;18.082;2023-12-04T19:40:23;2.77;;;2.50;;
17650;SDS011;26663;59.302;18.082;2023-12-04T19:43:27;3.13;;;2.93;;
17650;SDS011;26663;59.302;18.082;2023-12-04T19:46:32;3.03;;;2.93;;
17650;SDS011;26663;59.302;18.082;2023-12-04T19:49:40;2.80;;;2.70;;
17650;SDS011;26663;59.302;18.082;2023-12-04T19:52:45;2.40;;;2.30;;
17650;SDS011;26663;59.302;18.082;2023-12-04T19:55:49;2.90;;;2.70;;
17650;SDS011;26663;59.302;18.082;2023-12-04T19:58:53;3.20;;;2.67;;
17650;SDS011;26663;59.302;18.082;2023-12-04T20:01:58;2.80;;;2.70;;
17650;SDS011;26663;59.302;18.082;2023-12-04T20:05:02;2.70;;;2.60;;
17650;SDS011;26663;59.302;18.082;2023-12-04T20:08:07;2.70;;;2.47;;
17650;SDS011;26663;59.302;18.082;2023-12-04T20:11:12;2.73;;;2.50;;
17650;SDS011;26663;59.302;18.082;2023-12-04T20:14:16;2.70;;;2.60;;
17650;SDS011;26663;59.302;18.082;2023-12-04T20:17:21;2.87;;;2.77;;
17650;SDS011;26663;59.302;18.082;2023-12-04T20:20:26;2.67;;;2.47;;
17650;SDS011;26663;59.302;18.082;2023-12-04T20:23:31;2.83;;;2.70;;
17650;SDS011;26663;59.302;18.082;2023-12-04T20:26:35;2.80;;;2.70;;
17650;SDS011;26663;59.302;18.082;2023-12-04T20:29:39;3.13;;;3.03;;
17650;SDS011;26663;59.302;18.082;2023-12-04T20:32:45;3.30;;;3.00;;
17650;SDS011;26663;59.302;18.082;2023-12-04T20:35:49;3.37;;;3.27;;
17650;SDS011;26663;59.302;18.082;2023-12-04T20:38:53;3.77;;;3.40;;
17650;SDS011;26663;59.302;18.082;2023-12-04T20:41:57;3.90;;;3.57;;
17650;SDS011;26663;59.302;18.082;2023-12-04T20:45:02;6.43;;;3.53;;
17650;SDS011;26663;59.302;18.082;2023-12-04T20:48:08;3.07;;;2.93;;
17650;SDS011;26663;59.302;18.082;2023-12-04T20:51:14;4.10;;;3.83;;
17650;SDS011;26663;59.302;18.082;2023-12-04T20:54:18;4.83;;;3.70;;
17650;SDS011;26663;59.302;18.082;2023-12-04T20:57:21;3.37;;;3.27;;
17650;SDS011;26663;59.302;18.082;2023-12-04T21:00:25;4.00;;;3.70;;
17650;SDS011;26663;59.302;18.082;2023-12-04T21:03:31;4.13;;;3.53;;
17650;SDS011;26663;59.302;18.082;2023-12-04T21:06:35;4.20;;;3.83;;
17650;SDS011;26663;59.302;18.082;2023-12-04T21:09:39;4.10;;;3.80;;
17650;SDS011;26663;59.302;18.082;2023-12-04T21:12:44;4.33;;;4.03;;
17650;SDS011;26663;59.302;18.082;2023-12-04T21:15:48;3.63;;;3.43;;
17650;SDS011;26663;59.302;18.082;2023-12-04T21:18:53;3.40;;;3.17;;
17650;SDS011;26663;59.302;18.082;2023-12-04T21:21:58;6.70;;;4.00;;
17650;SDS011;26663;59.302;18.082;2023-12-04T21:25:02;3.80;;;3.50;;
17650;SDS011;26663;59.302;18.082;2023-12-04T21:28:07;3.43;;;3.30;;
17650;SDS011;26663;59.302;18.082;2023-12-04T21:31:12;3.10;;;3.00;;
17650;SDS011;26663;59.302;18.082;2023-12-04T21:34:17;3.57;;;3.27;;
17650;SDS011;26663;59.302;18.082;2023-12-04T21:37:21;3.40;;;3.10;;
17650;SDS011;26663;59.302;18.082;2023-12-04T21:40:26;3.13;;;2.93;;
17650;SDS011;26663;59.302;18.082;2023-12-04T21:43:30;3.37;;;3.17;;
17650;SDS011;26663;59.302;18.082;2023-12-04T21:46:34;3.70;;;3.40;;
17650;SDS011;26663;59.302;18.082;2023-12-04T21:49:39;3.80;;;3.50;;
17650;SDS011;26663;59.302;18.082;2023-12-04T21:52:45;3.97;;;3.70;;
17650;SDS011;26663;59.302;18.082;2023-12-04T21:55:49;3.90;;;3.40;;
17650;SDS011;26663;59.302;18.082;2023-12-04T21:58:53;3.80;;;3.47;;
17650;SDS011;26663;59.302;18.082;2023-12-04T22:01:56;4.63;;;3.87;;
17650;SDS011;26663;59.302;18.082;2023-12-04T22:05:02;3.93;;;3.63;;
17650;SDS011;26663;59.302;18.082;2023-12-04T22:08:07;3.80;;;3.60;;
17650;SDS011;26663;59.302;18.082;2023-12-04T22:11:11;4.07;;;3.80;;
17650;SDS011;26663;59.302;18.082;2023-12-04T22:14:14;3.47;;;3.27;;
17650;SDS011;26663;59.302;18.082;2023-12-04T22:17:19;3.83;;;3.50;;
17650;SDS011;26663;59.302;18.082;2023-12-04T22:20:25;3.27;;;3.10;;
17650;SDS011;26663;59.302;18.082;2023-12-04T22:23:30;3.57;;;3.37;;
17650;SDS011;26663;59.302;18.082;2023-12-04T22:26:33;3.17;;;3.07;;
17650;SDS011;26663;59.302;18.082;2023-12-04T22:29:37;3.43;;;3.33;;
17650;SDS011;26663;59.302;18.082;2023-12-04T22:32:41;4.00;;;3.63;;
17650;SDS011;26663;59.302;18.082;2023-12-04T22:35:46;3.90;;;3.60;;
17650;SDS011;26663;59.302;18.082;2023-12-04T22:38:50;4.90;;;4.00;;
17650;SDS011;26663;59.302;18.082;2023-12-04T22:41:54;4.23;;;3.67;;
17650;SDS011;26663;59.302;18.082;2023-12-04T22:44:58;3.30;;;3.20;;
17650;SDS011;26663;59.302;18.082;2023-12-04T22:48:02;4.00;;;3.70;;
17650;SDS011;26663;59.302;18.082;2023-12-04T22:51:08;3.70;;;3.50;;
17650;SDS011;26663;59.302;18.082;2023-12-04T22:54:12;4.33;;;3.97;;
17650;SDS011;26663;59.302;18.082;2023-12-04T22:57:16;4.13;;;3.73;;
17650;SDS011;26663;59.302;18.082;2023-12-04T23:00:20;3.77;;;3.57;;
17650;SDS011;26663;59.302;18.082;2023-12-04T23:03:27;3.53;;;3.40;;
17650;SDS011;26663;59.302;18.082;2023-12-04T23:06:33;4.63;;;4.27;;
17650;SDS011;26663;59.302;18.082;2023-12-04T23:09:37;4.03;;;3.73;;
17650;SDS011;26663;59.302;18.082;2023-12-04T23:12:41;3.47;;;3.27;;
17650;SDS011;26663;59.302;18.082;2023-12-04T23:15:45;4.17;;;3.90;;
17650;SDS011;26663;59.302;18.082;2023-12-04T23:18:48;3.90;;;3.70;;
17650;SDS011;26663;59.302;18.082;2023-12-04T23:21:54;4.00;;;3.80;;
17650;SDS011;26663;59.302;18.082;2023-12-04T23:24:58;3.77;;;3.57;;
17650;SDS011;26663;59.302;18.082;2023-12-04T23:28:03;3.83;;;3.60;;
17650;SDS011;26663;59.302;18.082;2023-12-04T23:31:07;3.97;;;3.63;;
17650;SDS011;26663;59.302;18.082;2023-12-04T23:34:11;3.70;;;3.40;;
17650;SDS011;26663;59.302;18.082;2023-12-04T23:37:16;2.77;;;2.70;;
17650;SDS011;26663;59.302;18.082;2023-12-04T23:40:20;3.30;;;3.10;;
17650;SDS011;26663;59.302;18.082;2023-12-04T23:43:24;2.80;;;2.70;;
17650;SDS011;26663;59.302;18.082;2023-12-04T23:46:28;3.20;;;3.10;;
17650;SDS011;26663;59.302;18.082;2023-12-04T23:49:32;3.37;;;3.17;;
17650;SDS011;26663;59.302;18.082;2023-12-04T23:52:37;3.77;;;3.47;;
17650;SDS011;26663;59.302;18.082;2023-12-04T23:55:41;3.73;;;3.10;;
17650;SDS011;26663;59.302;18.082;2023-12-04T23:58:45;3.20;;;3.00;;
